createdAt,value
2023-04-30T00:00:20.670Z,66.8359
2023-04-30T00:01:21.062Z,66.8561
2023-04-30T00:02:23.099Z,66.8827
2023-04-30T00:03:31.326Z,66.9088
2023-04-30T00:04:32.160Z,66.9618
2023-04-30T00:05:33.135Z,66.9696
2023-04-30T00:06:33.809Z,66.9823
2023-04-30T00:07:34.672Z,67.0029
2023-04-30T00:08:37.104Z,67.0268
2023-04-30T00:09:36.517Z,67.0555
2023-04-30T00:10:37.077Z,67.0804
2023-04-30T00:11:37.646Z,67.1088
2023-04-30T00:12:37.934Z,67.1366
2023-04-30T00:13:38.439Z,67.1627
2023-04-30T00:14:39.051Z,67.1871
2023-04-30T00:15:39.449Z,67.2146
2023-04-30T00:16:40.135Z,67.2379
2023-04-30T00:17:40.743Z,67.2634
2023-04-30T00:18:41.577Z,67.2911
2023-04-30T00:19:42.067Z,67.3253
2023-04-30T00:20:42.539Z,67.3592
2023-04-30T00:21:43.074Z,67.3822
2023-04-30T00:22:43.640Z,67.4080
2023-04-30T00:23:44.335Z,67.4359
2023-04-30T00:24:44.832Z,67.4612
2023-04-30T00:25:45.230Z,67.4879
2023-04-30T00:26:45.742Z,67.5128
2023-04-30T00:27:46.251Z,67.5361
2023-04-30T00:28:46.664Z,67.5579
2023-04-30T00:29:47.878Z,67.5856
2023-04-30T00:30:48.843Z,67.6099
2023-04-30T00:31:49.975Z,67.6386
2023-04-30T00:32:51.146Z,67.6622
2023-04-30T00:33:51.773Z,67.6887
2023-04-30T00:34:52.434Z,67.7204
2023-04-30T00:35:55.733Z,67.7493
2023-04-30T00:37:54.616Z,67.8097
2023-04-30T00:38:55.258Z,67.8392
2023-04-30T00:39:55.829Z,67.8688
2023-04-30T00:40:56.266Z,67.9007
2023-04-30T00:41:56.876Z,67.9282
2023-04-30T00:42:57.253Z,67.9602
2023-04-30T00:43:57.864Z,67.9890
2023-04-30T00:44:59.155Z,68.0128
2023-04-30T00:46:01.310Z,68.0476
2023-04-30T00:47:03.063Z,68.0725
2023-04-30T00:48:04.656Z,68.1017
2023-04-30T00:49:04.937Z,68.1272
2023-04-30T00:50:05.393Z,68.1599
2023-04-30T00:51:06.665Z,68.1851
2023-04-30T00:52:07.002Z,68.2045
2023-04-30T00:53:08.178Z,68.2265
2023-04-30T00:54:09.801Z,68.2484
2023-04-30T00:56:10.930Z,68.2882
2023-04-30T00:57:11.278Z,68.3143
2023-04-30T00:58:12.964Z,68.3263
2023-04-30T01:00:13.936Z,68.3600
2023-04-30T01:01:14.309Z,68.3784
2023-04-30T01:02:15.626Z,68.3901
2023-04-30T01:06:19.466Z,68.4281
2023-04-30T01:08:20.378Z,68.4480
2023-04-30T01:09:20.477Z,68.4540
2023-04-30T01:11:21.382Z,68.4723
2023-04-30T01:12:21.528Z,68.4840
2023-04-30T01:13:21.965Z,68.4922
2023-04-30T01:14:23.966Z,68.5080
2023-04-30T01:21:32.355Z,68.5598
2023-04-30T01:22:34.410Z,68.5590
2023-04-30T01:23:36.173Z,68.5573
2023-04-30T01:24:36.190Z,68.5493
2023-04-30T01:25:37.518Z,68.5488
2023-04-30T01:30:44.009Z,68.5571
2023-04-30T01:31:45.865Z,68.5652
2023-04-30T01:32:46.810Z,68.5718
2023-04-30T01:33:47.628Z,68.5830
2023-04-30T01:34:49.058Z,68.5923
2023-04-30T01:35:49.427Z,68.5999
2023-04-30T01:36:49.661Z,68.6036
2023-04-30T01:37:51.590Z,68.6102
2023-04-30T01:38:53.700Z,68.6203
2023-04-30T01:39:55.480Z,68.6259
2023-04-30T01:40:56.500Z,68.6358
2023-04-30T01:41:58.491Z,68.6384
2023-04-30T01:46:00.958Z,68.6569
2023-04-30T01:47:01.614Z,68.6663
2023-04-30T01:48:02.032Z,68.6740
2023-04-30T01:49:02.010Z,68.6822
2023-04-30T01:50:03.041Z,68.6906
2023-04-30T01:51:04.790Z,68.7016
2023-04-30T01:52:06.193Z,68.7089
2023-04-30T01:53:06.769Z,68.7193
2023-04-30T01:54:07.374Z,68.7280
2023-04-30T01:55:08.575Z,68.7348
2023-04-30T01:57:10.834Z,68.7443
2023-04-30T01:58:11.165Z,68.7559
2023-04-30T02:01:13.907Z,68.7969
2023-04-30T02:02:14.199Z,68.8208
2023-04-30T02:03:15.578Z,68.8221
2023-04-30T02:04:15.953Z,68.8246
2023-04-30T02:05:16.452Z,68.8259
2023-04-30T02:06:16.782Z,68.8302
2023-04-30T02:07:17.623Z,68.8364
2023-04-30T02:08:18.123Z,68.8367
2023-04-30T02:09:18.610Z,68.8412
2023-04-30T02:10:19.530Z,68.8462
2023-04-30T02:11:20.001Z,68.8522
2023-04-30T02:12:20.568Z,68.8579
2023-04-30T02:13:21.333Z,68.8664
2023-04-30T02:14:22.590Z,68.8786
2023-04-30T02:15:23.172Z,68.8923
2023-04-30T02:16:24.090Z,68.8976
2023-04-30T02:17:24.661Z,68.9070
2023-04-30T02:18:25.868Z,68.9144
2023-04-30T02:19:26.436Z,68.9230
2023-04-30T02:20:26.881Z,68.9323
2023-04-30T02:21:27.019Z,68.9413
2023-04-30T02:22:28.643Z,68.9500
2023-04-30T02:24:29.554Z,68.9750
2023-04-30T02:25:29.594Z,68.9877
2023-04-30T02:26:30.322Z,68.9903
2023-04-30T02:27:30.871Z,68.9968
2023-04-30T02:28:31.640Z,69.0003
2023-04-30T02:29:32.873Z,69.0018
2023-04-30T02:30:33.522Z,69.0046
2023-04-30T02:31:34.334Z,69.0083
2023-04-30T02:32:35.398Z,69.0095
2023-04-30T02:33:35.997Z,69.0176
2023-04-30T02:34:36.519Z,69.0235
2023-04-30T02:35:37.168Z,69.0272
2023-04-30T02:36:37.464Z,69.0313
2023-04-30T02:37:38.035Z,69.0315
2023-04-30T02:38:38.352Z,69.0319
2023-04-30T02:39:38.945Z,69.0353
2023-04-30T02:40:39.196Z,69.0375
2023-04-30T02:41:39.566Z,69.0421
2023-04-30T02:42:40.195Z,69.0461
2023-04-30T02:43:40.687Z,69.0516
2023-04-30T02:44:41.039Z,69.0617
2023-04-30T02:45:41.772Z,69.0704
2023-04-30T02:46:42.650Z,69.0784
2023-04-30T02:47:43.331Z,69.0838
2023-04-30T02:48:43.982Z,69.0954
2023-04-30T02:49:44.428Z,69.1036
2023-04-30T02:50:45.645Z,69.1144
2023-04-30T02:51:46.366Z,69.1281
2023-04-30T02:52:46.682Z,69.1404
2023-04-30T02:53:47.233Z,69.1471
2023-04-30T02:54:47.800Z,69.1584
2023-04-30T02:55:48.284Z,69.1688
2023-04-30T02:56:48.892Z,69.1757
2023-04-30T02:57:49.355Z,69.1858
2023-04-30T02:58:49.882Z,69.1934
2023-04-30T02:59:50.462Z,69.2010
2023-04-30T03:00:50.892Z,69.2020
2023-04-30T03:01:51.984Z,69.2095
2023-04-30T03:02:53.083Z,69.2116
2023-04-30T03:03:54.160Z,69.2087
2023-04-30T03:04:54.718Z,69.2012
2023-04-30T03:05:55.466Z,69.1979
2023-04-30T03:06:56.072Z,69.1945
2023-04-30T03:07:56.659Z,69.1878
2023-04-30T03:08:57.274Z,69.1825
2023-04-30T03:09:57.629Z,69.1753
2023-04-30T03:10:58.125Z,69.1657
2023-04-30T03:11:58.596Z,69.1586
2023-04-30T03:12:59.166Z,69.1496
2023-04-30T03:13:59.719Z,69.1399
2023-04-30T03:15:00.148Z,69.1341
2023-04-30T03:16:00.798Z,69.1238
2023-04-30T03:17:01.552Z,69.1148
2023-04-30T03:18:01.634Z,69.1062
2023-04-30T03:19:02.204Z,69.1007
2023-04-30T03:20:03.087Z,69.0906
2023-04-30T03:21:03.716Z,69.0908
2023-04-30T03:22:04.277Z,69.0789
2023-04-30T03:23:04.647Z,69.0723
2023-04-30T03:24:05.248Z,69.0774
2023-04-30T03:25:05.689Z,69.0726
2023-04-30T03:26:06.164Z,69.0746
2023-04-30T03:27:06.921Z,69.0722
2023-04-30T03:28:07.810Z,69.0624
2023-04-30T03:29:08.464Z,69.0504
2023-04-30T03:30:09.582Z,69.0426
2023-04-30T03:31:10.137Z,69.0394
2023-04-30T03:32:11.060Z,69.0433
2023-04-30T03:33:12.025Z,69.0476
2023-04-30T03:34:12.881Z,69.0467
2023-04-30T03:35:13.386Z,69.0434
2023-04-30T03:36:13.871Z,69.0400
2023-04-30T03:37:14.421Z,69.0326
2023-04-30T03:38:15.075Z,69.0319
2023-04-30T03:39:15.542Z,69.0293
2023-04-30T03:40:16.170Z,69.0300
2023-04-30T03:41:16.754Z,69.0334
2023-04-30T03:42:17.241Z,69.0345
2023-04-30T03:43:17.424Z,69.0377
2023-04-30T03:44:18.160Z,69.0371
2023-04-30T03:45:18.521Z,69.0364
2023-04-30T03:46:18.555Z,69.0363
2023-04-30T03:47:19.633Z,69.0366
2023-04-30T03:48:20.743Z,69.0380
2023-04-30T03:49:21.311Z,69.0430
2023-04-30T03:50:21.697Z,69.0489
2023-04-30T03:51:22.240Z,69.0545
2023-04-30T03:52:23.074Z,69.0602
2023-04-30T03:53:23.500Z,69.0626
2023-04-30T03:54:24.043Z,69.0656
2023-04-30T03:55:24.587Z,69.0669
2023-04-30T03:56:25.031Z,69.0711
2023-04-30T03:57:25.703Z,69.0723
2023-04-30T03:58:26.038Z,69.0728
2023-04-30T03:59:26.605Z,69.0786
2023-04-30T04:00:27.568Z,69.0838
2023-04-30T04:01:28.035Z,69.0879
2023-04-30T04:02:29.283Z,69.0899
2023-04-30T04:03:30.225Z,69.0927
2023-04-30T04:04:31.340Z,69.0955
2023-04-30T04:05:31.864Z,69.0965
2023-04-30T04:06:33.068Z,69.1015
2023-04-30T04:07:33.545Z,69.1094
2023-04-30T04:08:34.081Z,69.1114
2023-04-30T04:09:34.637Z,69.1155
2023-04-30T04:10:35.087Z,69.1203
2023-04-30T04:11:35.731Z,69.1246
2023-04-30T04:12:36.256Z,69.1308
2023-04-30T04:13:36.827Z,69.1367
2023-04-30T04:14:37.399Z,69.1404
2023-04-30T04:15:37.845Z,69.1488
2023-04-30T04:16:39.164Z,69.1813
2023-04-30T04:17:40.072Z,69.2339
2023-04-30T04:18:40.648Z,69.2628
2023-04-30T04:19:41.307Z,69.2652
2023-04-30T04:20:42.407Z,69.2643
2023-04-30T04:21:42.790Z,69.2662
2023-04-30T04:22:43.402Z,69.2658
2023-04-30T04:23:43.977Z,69.2662
2023-04-30T04:24:44.320Z,69.2644
2023-04-30T04:25:44.938Z,69.2669
2023-04-30T04:26:47.881Z,69.2678
2023-04-30T04:27:46.322Z,69.2778
2023-04-30T04:28:46.949Z,69.2764
2023-04-30T04:29:47.485Z,69.2741
2023-04-30T04:30:48.058Z,69.2753
2023-04-30T04:31:48.878Z,69.2785
2023-04-30T04:32:49.569Z,69.2795
2023-04-30T04:33:50.254Z,69.2728
2023-04-30T04:34:50.955Z,69.2685
2023-04-30T04:35:51.478Z,69.2660
2023-04-30T04:36:52.098Z,69.2574
2023-04-30T04:37:52.685Z,69.2562
2023-04-30T04:38:53.320Z,69.2525
2023-04-30T04:39:54.495Z,69.2530
2023-04-30T04:40:55.050Z,69.2587
2023-04-30T04:41:55.708Z,69.2616
2023-04-30T04:42:56.284Z,69.2656
2023-04-30T04:43:56.951Z,69.2715
2023-04-30T04:44:57.575Z,69.2748
2023-04-30T04:45:58.147Z,69.2811
2023-04-30T04:46:58.976Z,69.2871
2023-04-30T04:47:59.691Z,69.2939
2023-04-30T04:49:00.126Z,69.2963
2023-04-30T04:50:01.394Z,69.2990
2023-04-30T04:51:01.967Z,69.2998
2023-04-30T04:52:02.366Z,69.2981
2023-04-30T04:53:02.956Z,69.3020
2023-04-30T04:54:03.459Z,69.3018
2023-04-30T04:55:03.973Z,69.3038
2023-04-30T04:56:04.764Z,69.3104
2023-04-30T04:57:05.193Z,69.3120
2023-04-30T04:58:05.789Z,69.3129
2023-04-30T04:59:06.382Z,69.3099
2023-04-30T05:00:08.021Z,69.3094
2023-04-30T05:01:08.596Z,69.3091
2023-04-30T05:02:09.645Z,69.3081
2023-04-30T05:03:10.735Z,69.3048
2023-04-30T05:04:11.622Z,69.3064
2023-04-30T05:05:12.281Z,69.3009
2023-04-30T05:06:12.798Z,69.3042
2023-04-30T05:07:13.927Z,69.3019
2023-04-30T05:08:14.524Z,69.2996
2023-04-30T05:09:15.003Z,69.2999
2023-04-30T05:10:15.574Z,69.3019
2023-04-30T05:11:16.421Z,69.3013
2023-04-30T05:12:16.859Z,69.2941
2023-04-30T05:13:17.502Z,69.2822
2023-04-30T05:14:17.881Z,69.2726
2023-04-30T05:15:18.516Z,69.2579
2023-04-30T05:16:19.577Z,69.2478
2023-04-30T05:17:20.218Z,69.2353
2023-04-30T05:18:21.116Z,69.2187
2023-04-30T05:19:21.859Z,69.2058
2023-04-30T05:20:22.178Z,69.1892
2023-04-30T05:21:22.897Z,69.1746
2023-04-30T05:22:23.556Z,69.1628
2023-04-30T05:23:23.972Z,69.1492
2023-04-30T05:24:24.596Z,69.1420
2023-04-30T05:25:26.944Z,69.1362
2023-04-30T05:29:28.149Z,69.1361
2023-04-30T05:30:28.247Z,69.1399
2023-04-30T05:31:29.623Z,69.1419
2023-04-30T05:32:30.369Z,69.1456
2023-04-30T05:33:31.313Z,69.1403
2023-04-30T05:34:31.753Z,69.1348
2023-04-30T05:35:32.351Z,69.1286
2023-04-30T05:36:32.966Z,69.1210
2023-04-30T05:37:33.702Z,69.1237
2023-04-30T05:38:34.668Z,69.1272
2023-04-30T05:39:34.911Z,69.1171
2023-04-30T05:40:34.800Z,69.1068
2023-04-30T05:41:35.305Z,69.0855
2023-04-30T05:42:35.397Z,69.0757
2023-04-30T05:43:36.205Z,69.0643
2023-04-30T05:44:37.639Z,69.0498
2023-04-30T05:45:38.157Z,69.0547
2023-04-30T05:46:38.944Z,69.0284
2023-04-30T05:47:39.935Z,69.0072
2023-04-30T05:48:40.598Z,68.9942
2023-04-30T05:49:40.647Z,68.9816
2023-04-30T05:50:41.927Z,68.9694
2023-04-30T05:51:42.714Z,68.9567
2023-04-30T05:52:43.517Z,68.9370
2023-04-30T05:53:43.568Z,68.9081
2023-04-30T05:54:44.235Z,68.8808
2023-04-30T05:55:44.711Z,68.8613
2023-04-30T05:56:45.505Z,68.8435
2023-04-30T05:57:45.962Z,68.8277
2023-04-30T05:58:46.631Z,68.8140
2023-04-30T05:59:47.274Z,68.8073
2023-04-30T06:00:48.375Z,68.7979
2023-04-30T06:01:48.934Z,68.7894
2023-04-30T06:02:49.207Z,68.7760
2023-04-30T06:03:49.677Z,68.7684
2023-04-30T06:04:50.429Z,68.7596
2023-04-30T06:05:51.433Z,68.7534
2023-04-30T06:06:51.727Z,68.7458
2023-04-30T06:07:52.319Z,68.7463
2023-04-30T06:08:52.727Z,68.7466
2023-04-30T06:09:53.561Z,68.7489
2023-04-30T06:10:54.289Z,68.7500
2023-04-30T06:11:54.713Z,68.7451
2023-04-30T06:12:55.221Z,68.7401
2023-04-30T06:13:55.828Z,68.7293
2023-04-30T06:14:56.229Z,68.7261
2023-04-30T06:15:56.877Z,68.7155
2023-04-30T06:16:57.596Z,68.7051
2023-04-30T06:17:58.699Z,68.6935
2023-04-30T06:18:59.450Z,68.6796
2023-04-30T06:19:59.787Z,68.6671
2023-04-30T06:21:00.549Z,68.6569
2023-04-30T06:22:01.723Z,68.6503
2023-04-30T06:23:15.367Z,68.6549
2023-04-30T06:24:34.871Z,68.6831
2023-04-30T06:25:16.725Z,68.7225
2023-04-30T06:26:17.273Z,68.6876
2023-04-30T06:27:17.791Z,68.6763
2023-04-30T06:28:18.661Z,68.6723
2023-04-30T06:29:19.374Z,68.6731
2023-04-30T06:30:20.097Z,68.6728
2023-04-30T06:31:20.898Z,68.6736
2023-04-30T06:32:21.562Z,68.6854
2023-04-30T06:33:22.351Z,68.7044
2023-04-30T06:34:22.954Z,68.7132
2023-04-30T06:35:23.402Z,68.7190
2023-04-30T06:36:24.133Z,68.7171
2023-04-30T06:37:25.362Z,68.7196
2023-04-30T06:38:26.361Z,68.7224
2023-04-30T06:39:27.007Z,68.7069
2023-04-30T06:40:27.637Z,68.6945
2023-04-30T06:41:28.651Z,68.6824
2023-04-30T06:42:29.021Z,68.6736
2023-04-30T06:43:29.723Z,68.6651
2023-04-30T06:44:29.810Z,68.6731
2023-04-30T06:45:30.376Z,68.6848
2023-04-30T06:46:31.582Z,68.6827
2023-04-30T06:47:31.449Z,68.6896
2023-04-30T06:48:32.508Z,68.6977
2023-04-30T06:49:33.121Z,68.7020
2023-04-30T06:50:33.729Z,68.7109
2023-04-30T06:51:34.157Z,68.7220
2023-04-30T06:52:34.665Z,68.7273
2023-04-30T06:53:35.212Z,68.7342
2023-04-30T06:54:35.568Z,68.7356
2023-04-30T06:55:36.164Z,68.7381
2023-04-30T06:56:37.086Z,68.7381
2023-04-30T06:57:37.672Z,68.7379
2023-04-30T06:58:38.216Z,68.7405
2023-04-30T06:59:38.682Z,68.7423
2023-04-30T07:00:39.217Z,68.7486
2023-04-30T07:01:39.939Z,68.7441
2023-04-30T07:02:40.172Z,68.7430
2023-04-30T07:03:41.003Z,68.7412
2023-04-30T07:04:42.224Z,68.7362
2023-04-30T07:05:42.662Z,68.7306
2023-04-30T07:06:43.646Z,68.7258
2023-04-30T07:07:44.123Z,68.7197
2023-04-30T07:08:45.728Z,68.7116
2023-04-30T07:09:46.304Z,68.7012
2023-04-30T07:10:46.834Z,68.6877
2023-04-30T07:11:47.446Z,68.6748
2023-04-30T07:12:48.030Z,68.6592
2023-04-30T07:13:48.434Z,68.6411
2023-04-30T07:14:49.098Z,68.6178
2023-04-30T07:15:49.551Z,68.5945
2023-04-30T07:16:50.279Z,68.5695
2023-04-30T07:17:50.892Z,68.5386
2023-04-30T07:18:51.481Z,68.5005
2023-04-30T07:19:52.300Z,68.4558
2023-04-30T07:20:53.561Z,68.4085
2023-04-30T07:21:54.638Z,68.3475
2023-04-30T07:22:55.229Z,68.2760
2023-04-30T07:23:55.564Z,68.1989
2023-04-30T07:24:56.038Z,68.1127
2023-04-30T07:25:56.671Z,68.0166
2023-04-30T07:26:57.104Z,67.9183
2023-04-30T07:27:57.664Z,67.8216
2023-04-30T07:28:58.216Z,67.7401
2023-04-30T07:29:58.694Z,67.6695
2023-04-30T07:30:59.078Z,67.6136
2023-04-30T07:31:59.704Z,67.5537
2023-04-30T07:33:00.536Z,67.5105
2023-04-30T07:34:01.280Z,67.4776
2023-04-30T07:35:01.641Z,67.4518
2023-04-30T07:36:02.183Z,67.4357
2023-04-30T07:37:02.765Z,67.4227
2023-04-30T07:38:03.341Z,67.4139
2023-04-30T07:39:03.851Z,67.4038
2023-04-30T07:40:04.809Z,67.3976
2023-04-30T07:41:05.186Z,67.4006
2023-04-30T07:42:05.815Z,67.3965
2023-04-30T07:43:06.290Z,67.3941
2023-04-30T07:44:06.876Z,67.3909
2023-04-30T07:45:07.446Z,67.3913
2023-04-30T07:46:07.983Z,67.3834
2023-04-30T07:47:09.005Z,67.3680
2023-04-30T07:48:09.921Z,67.3500
2023-04-30T07:49:10.841Z,67.3280
2023-04-30T07:50:11.420Z,67.2946
2023-04-30T07:51:12.096Z,67.2653
2023-04-30T07:52:12.843Z,67.2346
2023-04-30T07:53:13.479Z,67.2037
2023-04-30T07:54:14.364Z,67.1594
2023-04-30T07:55:14.929Z,67.1193
2023-04-30T07:56:15.510Z,67.0792
2023-04-30T07:57:15.994Z,67.0374
2023-04-30T07:58:16.521Z,67.0034
2023-04-30T07:59:17.077Z,66.9723
2023-04-30T08:00:17.767Z,66.9428
2023-04-30T08:01:18.460Z,66.9039
2023-04-30T08:02:19.229Z,66.8584
2023-04-30T08:03:20.226Z,66.8108
2023-04-30T08:04:20.530Z,66.7769
2023-04-30T08:05:21.431Z,66.7606
2023-04-30T08:06:22.115Z,66.7071
2023-04-30T08:07:22.847Z,66.6536
2023-04-30T08:08:23.422Z,66.6006
2023-04-30T08:09:24.337Z,66.5632
2023-04-30T08:10:25.210Z,66.5288
2023-04-30T08:11:25.802Z,66.4939
2023-04-30T08:12:26.378Z,66.4491
2023-04-30T08:13:26.812Z,66.4043
2023-04-30T08:14:27.398Z,66.3663
2023-04-30T08:15:28.863Z,66.3327
2023-04-30T08:16:28.733Z,66.3063
2023-04-30T08:17:29.907Z,66.2628
2023-04-30T08:18:30.532Z,66.2277
2023-04-30T08:19:31.190Z,66.1887
2023-04-30T08:20:32.170Z,66.1564
2023-04-30T08:21:32.570Z,66.1280
2023-04-30T08:22:33.193Z,66.1040
2023-04-30T08:23:33.846Z,66.0840
2023-04-30T08:24:34.485Z,66.0662
2023-04-30T08:25:35.237Z,66.0531
2023-04-30T08:26:35.550Z,66.0437
2023-04-30T08:27:36.172Z,66.0232
2023-04-30T08:28:36.868Z,65.9963
2023-04-30T08:29:37.251Z,65.9526
2023-04-30T08:30:37.955Z,65.9097
2023-04-30T08:31:38.668Z,65.8615
2023-04-30T08:32:39.843Z,65.8219
2023-04-30T08:33:39.925Z,65.7963
2023-04-30T08:34:40.445Z,65.7747
2023-04-30T08:35:40.545Z,65.7656
2023-04-30T08:36:41.016Z,65.7683
2023-04-30T08:37:41.682Z,65.7730
2023-04-30T08:38:42.373Z,65.7767
2023-04-30T08:39:42.783Z,65.7713
2023-04-30T08:40:51.428Z,65.7650
2023-04-30T08:41:44.574Z,65.7688
2023-04-30T08:42:45.165Z,65.7511
2023-04-30T08:43:46.387Z,65.7434
2023-04-30T08:44:47.491Z,65.7396
2023-04-30T08:45:48.297Z,65.7215
2023-04-30T08:46:48.865Z,65.7029
2023-04-30T08:47:49.118Z,65.6974
2023-04-30T08:49:50.040Z,65.6205
2023-04-30T08:50:50.728Z,65.5842
2023-04-30T08:51:51.391Z,65.5398
2023-04-30T08:52:52.168Z,65.4959
2023-04-30T08:53:53.101Z,65.4621
2023-04-30T08:54:53.606Z,65.4391
2023-04-30T08:55:54.281Z,65.4304
2023-04-30T08:56:54.856Z,65.4307
2023-04-30T08:57:55.254Z,65.4417
2023-04-30T08:58:56.085Z,65.4531
2023-04-30T08:59:56.751Z,65.4714
2023-04-30T09:00:56.958Z,65.4936
2023-04-30T09:01:58.066Z,65.5187
2023-04-30T09:02:59.182Z,65.5466
2023-04-30T09:03:59.588Z,65.5789
2023-04-30T09:05:00.844Z,65.6124
2023-04-30T09:06:01.411Z,65.6445
2023-04-30T09:07:04.453Z,65.6765
2023-04-30T09:08:06.417Z,65.7185
2023-04-30T09:09:07.338Z,65.7659
2023-04-30T09:10:07.836Z,65.7826
2023-04-30T09:11:08.624Z,65.8022
2023-04-30T09:12:09.003Z,65.8150
2023-04-30T09:13:09.649Z,65.8369
2023-04-30T09:14:10.551Z,65.8564
2023-04-30T09:15:11.161Z,65.8722
2023-04-30T09:16:11.856Z,65.8940
2023-04-30T09:17:11.853Z,65.9048
2023-04-30T09:18:12.661Z,65.9170
2023-04-30T09:20:12.982Z,65.9394
2023-04-30T09:21:13.668Z,65.9337
2023-04-30T09:22:14.547Z,65.9142
2023-04-30T09:23:15.036Z,65.9015
2023-04-30T09:24:18.623Z,65.8875
2023-04-30T09:25:37.731Z,65.8867
2023-04-30T09:26:17.031Z,65.8863
2023-04-30T09:27:18.141Z,65.8509
2023-04-30T09:28:19.657Z,65.8287
2023-04-30T09:29:24.884Z,65.8123
2023-04-30T09:30:20.308Z,65.7974
2023-04-30T09:31:21.599Z,65.7624
2023-04-30T09:32:22.246Z,65.7337
2023-04-30T09:33:22.399Z,65.7065
2023-04-30T09:34:23.285Z,65.6612
2023-04-30T09:35:25.003Z,65.6090
2023-04-30T09:36:25.702Z,65.5530
2023-04-30T09:37:27.151Z,65.4965
2023-04-30T09:39:28.076Z,65.4375
2023-04-30T09:40:28.264Z,65.4109
2023-04-30T09:41:28.661Z,65.3780
2023-04-30T09:42:29.287Z,65.3335
2023-04-30T09:43:30.262Z,65.2732
2023-04-30T09:44:30.674Z,65.2041
2023-04-30T09:45:32.705Z,65.1174
2023-04-30T09:46:32.487Z,65.0359
2023-04-30T09:47:33.390Z,64.9578
2023-04-30T09:50:35.006Z,64.7639
2023-04-30T09:51:35.570Z,64.7160
2023-04-30T09:52:36.507Z,64.6750
2023-04-30T09:53:37.134Z,64.6349
2023-04-30T09:54:37.965Z,64.5935
2023-04-30T09:55:37.926Z,64.5515
2023-04-30T09:56:38.010Z,64.5050
2023-04-30T09:57:38.084Z,64.4663
2023-04-30T09:58:39.444Z,64.4552
2023-04-30T09:59:39.027Z,64.4187
2023-04-30T10:00:40.154Z,64.3995
2023-04-30T10:01:41.641Z,64.3668
2023-04-30T10:02:43.014Z,64.3218
2023-04-30T10:04:43.007Z,64.2478
2023-04-30T10:05:44.337Z,64.2419
2023-04-30T10:06:58.876Z,64.2503
2023-04-30T10:07:59.117Z,64.2299
2023-04-30T10:09:00.707Z,64.2302
2023-04-30T10:10:00.837Z,64.2272
2023-04-30T10:11:01.502Z,64.2376
2023-04-30T10:12:01.966Z,64.2621
2023-04-30T10:13:02.708Z,64.2976
2023-04-30T10:14:03.020Z,64.3257
2023-04-30T10:15:03.886Z,64.3407
2023-04-30T10:16:04.503Z,64.3381
2023-04-30T10:17:05.241Z,64.3197
2023-04-30T10:18:06.333Z,64.3048
2023-04-30T10:19:07.266Z,64.3007
2023-04-30T10:20:08.512Z,64.2893
2023-04-30T10:21:09.301Z,64.2636
2023-04-30T10:22:09.885Z,64.2066
2023-04-30T10:23:10.244Z,64.1236
2023-04-30T10:24:10.940Z,64.0462
2023-04-30T10:25:11.690Z,63.9731
2023-04-30T10:26:12.233Z,63.9035
2023-04-30T10:27:13.833Z,63.8316
2023-04-30T10:28:13.429Z,63.7583
2023-04-30T10:29:14.621Z,63.6799
2023-04-30T10:30:15.165Z,63.6030
2023-04-30T10:31:15.653Z,63.5274
2023-04-30T10:32:16.821Z,63.4680
2023-04-30T10:33:18.700Z,63.4221
2023-04-30T10:34:18.707Z,63.3705
2023-04-30T10:35:19.089Z,63.3349
2023-04-30T10:36:19.751Z,63.3165
2023-04-30T10:37:20.179Z,63.2910
2023-04-30T10:38:20.701Z,63.2688
2023-04-30T10:39:37.153Z,63.2573
2023-04-30T10:40:37.263Z,63.2539
2023-04-30T10:41:37.770Z,63.2563
2023-04-30T10:42:38.425Z,63.2474
2023-04-30T10:43:40.196Z,63.1994
2023-04-30T10:44:39.162Z,63.1463
2023-04-30T10:45:40.401Z,63.0987
2023-04-30T10:46:41.721Z,63.0762
2023-04-30T10:47:42.122Z,63.0489
2023-04-30T10:48:43.114Z,63.0108
2023-04-30T10:49:43.750Z,62.9593
2023-04-30T10:50:46.173Z,62.9213
2023-04-30T10:51:45.702Z,62.9013
2023-04-30T10:53:01.867Z,62.8768
2023-04-30T10:53:47.796Z,62.8598
2023-04-30T10:54:48.506Z,62.7811
2023-04-30T10:55:49.794Z,62.6961
2023-04-30T10:56:48.714Z,62.6038
2023-04-30T10:57:49.384Z,62.5020
2023-04-30T10:58:50.039Z,62.4189
2023-04-30T10:59:50.468Z,62.3529
2023-04-30T11:00:51.648Z,62.3061
2023-04-30T11:01:52.698Z,62.2803
2023-04-30T11:02:53.740Z,62.2686
2023-04-30T11:03:54.595Z,62.2705
2023-04-30T11:04:55.594Z,62.2823
2023-04-30T11:05:56.422Z,62.2974
2023-04-30T11:06:57.527Z,62.2950
2023-04-30T11:07:58.188Z,62.2897
2023-04-30T11:08:59.188Z,62.2865
2023-04-30T11:09:59.458Z,62.2874
2023-04-30T11:11:00.159Z,62.2952
2023-04-30T11:12:01.126Z,62.2876
2023-04-30T11:13:03.651Z,62.2651
2023-04-30T11:14:04.101Z,62.2490
2023-04-30T11:15:04.810Z,62.2129
2023-04-30T11:16:05.155Z,62.1539
2023-04-30T11:17:05.411Z,62.0872
2023-04-30T11:18:05.799Z,61.9957
2023-04-30T11:19:06.195Z,61.8952
2023-04-30T11:20:06.995Z,61.8000
2023-04-30T11:21:07.429Z,61.7056
2023-04-30T11:22:08.063Z,61.6010
2023-04-30T11:23:08.725Z,61.5023
2023-04-30T11:24:10.239Z,61.4341
2023-04-30T11:25:11.025Z,61.3372
2023-04-30T11:26:11.941Z,61.2553
2023-04-30T11:27:12.876Z,61.1858
2023-04-30T11:28:14.265Z,61.1307
2023-04-30T11:29:15.554Z,61.0988
2023-04-30T11:30:15.364Z,61.0618
2023-04-30T11:31:15.757Z,61.0197
2023-04-30T11:32:16.103Z,60.9896
2023-04-30T11:33:17.179Z,60.9815
2023-04-30T11:34:17.871Z,60.9882
2023-04-30T11:35:18.750Z,60.9852
2023-04-30T11:36:19.245Z,60.9683
2023-04-30T11:37:20.498Z,60.9515
2023-04-30T11:38:21.530Z,60.9179
2023-04-30T11:39:22.541Z,60.8808
2023-04-30T11:40:23.506Z,60.8330
2023-04-30T11:41:24.054Z,60.7735
2023-04-30T11:42:24.784Z,60.6693
2023-04-30T11:43:25.671Z,60.4981
2023-04-30T11:44:26.152Z,60.3288
2023-04-30T11:45:26.832Z,60.2067
2023-04-30T11:46:27.462Z,60.1249
2023-04-30T11:47:28.322Z,60.0740
2023-04-30T11:48:30.146Z,60.0444
2023-04-30T11:49:29.511Z,60.0367
2023-04-30T11:50:29.896Z,60.0387
2023-04-30T11:51:30.230Z,60.0458
2023-04-30T11:52:30.636Z,60.0530
2023-04-30T11:53:31.404Z,60.0586
2023-04-30T11:54:31.924Z,60.0604
2023-04-30T11:55:32.686Z,60.0596
2023-04-30T11:56:33.780Z,60.0636
2023-04-30T11:57:34.309Z,60.0561
2023-04-30T11:58:35.028Z,60.0619
2023-04-30T11:59:35.741Z,60.0845
2023-04-30T12:00:36.573Z,60.1245
2023-04-30T12:01:37.280Z,60.1861
2023-04-30T12:02:38.371Z,60.2434
2023-04-30T12:03:39.436Z,60.3102
2023-04-30T12:04:40.802Z,60.3644
2023-04-30T12:05:41.363Z,60.4111
2023-04-30T12:06:42.218Z,60.4696
2023-04-30T12:07:42.732Z,60.5352
2023-04-30T12:08:43.445Z,60.5952
2023-04-30T12:09:44.222Z,60.6604
2023-04-30T12:10:45.206Z,60.7347
2023-04-30T12:11:45.835Z,60.8067
2023-04-30T12:12:46.752Z,60.8732
2023-04-30T12:13:47.338Z,60.9368
2023-04-30T12:14:47.990Z,60.9945
2023-04-30T12:15:49.473Z,61.0363
2023-04-30T12:16:50.479Z,61.0679
2023-04-30T12:18:52.663Z,61.0509
2023-04-30T12:19:51.714Z,60.9847
2023-04-30T12:20:52.413Z,60.9008
2023-04-30T12:21:52.502Z,60.8200
2023-04-30T12:22:53.426Z,60.7497
2023-04-30T12:23:54.593Z,60.6916
2023-04-30T12:24:55.018Z,60.6512
2023-04-30T12:25:55.541Z,60.6324
2023-04-30T12:26:55.812Z,60.6276
2023-04-30T12:27:57.030Z,60.6324
2023-04-30T12:28:58.116Z,60.6521
2023-04-30T12:29:58.969Z,60.6921
2023-04-30T12:31:00.160Z,60.7288
2023-04-30T12:32:00.214Z,60.7782
2023-04-30T12:33:00.649Z,60.8434
2023-04-30T12:34:02.047Z,60.9111
2023-04-30T12:36:02.141Z,61.0840
2023-04-30T12:37:02.992Z,61.1393
2023-04-30T12:38:03.453Z,61.2102
2023-04-30T12:39:04.407Z,61.2719
2023-04-30T12:40:04.573Z,61.3106
2023-04-30T12:41:16.326Z,61.3471
2023-04-30T12:42:16.737Z,61.4218
2023-04-30T12:43:17.450Z,61.4758
2023-04-30T12:44:17.862Z,61.5363
2023-04-30T12:45:18.357Z,61.6074
2023-04-30T12:46:19.268Z,61.6800
2023-04-30T12:47:19.887Z,61.7388
2023-04-30T12:48:20.165Z,61.7793
2023-04-30T12:49:20.734Z,61.8095
2023-04-30T12:50:21.504Z,61.8209
2023-04-30T12:51:22.174Z,61.8380